Foleyet, Canada
Current Conditions -  °F | °C
As of 2:00 PM on Saturday 25 Oct 2014 (Local Time) from CYLD Reporting Station
Overcast Overcast  
Wind Chill: 41°   Ceiling: 2500
Heat Index: 46°   Visibility: 15mi
Dew Point: 37°   Wind: 12mph
Humidity: 71%   Direction: 270°W
Pressure: 29.49"   Gusts: NA
Location:  48.25°N, 82.43°W
Report Text: CYLD 251800Z 27010KT 15SM OVC025 08/03 A2949 RMK SC8 210 V 340SLP997
Loading
Personal Weather Stations






























Interactive Weather Map
Tropical Storm Tracking
New forecast layout! Learn more

10-Day Weather Forecast

Advertisements
Track Severe Weather on mobile